Time;durP1;ratioP1;P1;durP2;ratioP2;P2;SDS_P1;SDS_P2;PMS_P1;PMS_P2;Temp;Humidity;BMP_temperature;BMP_pressure;BME280_temperature;BME280_humidity;BME280_pressure;Samples;Min_cycle;Max_cycle;Signal;HPM_P1;HPM_P2
2022/09/04 00:02:22;;;;;;;14.63;13.63;;;17.80;96.10;;;;;;5005497;28;20578;-71
2022/09/04 00:04:56;;;;;;;14.50;13.80;;;17.80;95.90;;;;;;5007134;28;20546;-70
2022/09/04 00:07:27;;;;;;;14.67;13.70;;;17.70;96.00;;;;;;5006971;28;20455;-70
2022/09/04 00:10:08;;;;;;;14.67;13.77;;;17.70;95.90;;;;;;4996118;28;20460;-70
2022/09/04 00:12:44;;;;;;;14.73;13.73;;;17.70;95.80;;;;;;5005504;28;20511;-71
2022/09/04 00:15:18;;;;;;;15.60;14.70;;;17.60;96.00;;;;;;5005053;28;20452;-71
2022/09/04 00:17:50;;;;;;;15.20;14.30;;;17.60;96.00;;;;;;5010104;28;20544;-71
2022/09/04 00:20:28;;;;;;;14.97;14.07;;;17.70;95.90;;;;;;4995828;28;20491;-70
2022/09/04 00:23:00;;;;;;;14.90;14.10;;;17.60;96.00;;;;;;5001555;28;20516;-71
2022/09/04 00:25:35;;;;;;;14.07;13.27;;;17.60;96.20;;;;;;5007172;28;20502;-70
2022/09/04 00:28:09;;;;;;;15.27;14.27;;;17.50;96.40;;;;;;4997444;28;20548;-70
2022/09/04 00:30:49;;;;;;;14.60;13.70;;;17.50;96.40;;;;;;5001182;28;20473;-71
2022/09/04 00:33:24;;;;;;;14.80;13.90;;;17.50;96.40;;;;;;5002722;28;20483;-71
2022/09/04 00:35:57;;;;;;;15.43;14.47;;;17.50;96.30;;;;;;5002357;28;20466;-70
2022/09/04 00:38:36;;;;;;;15.63;14.77;;;17.40;96.60;;;;;;5000296;28;20469;-70
2022/09/04 00:41:11;;;;;;;15.10;14.30;;;17.50;96.40;;;;;;5008440;28;20835;-71
2022/09/04 00:44:14;;;;;;;15.80;14.90;;;17.40;96.30;;;;;;5001205;28;20554;-71
2022/09/04 00:47:01;;;;;;;16.00;14.80;;;17.40;96.60;;;;;;5004573;28;20459;-70
2022/09/04 00:49:58;;;;;;;15.43;14.43;;;17.40;96.60;;;;;;4999172;28;20534;-71
2022/09/04 00:52:43;;;;;;;15.67;14.77;;;17.30;96.70;;;;;;5007981;28;20473;-71
2022/09/04 00:55:33;;;;;;;15.40;14.30;;;17.30;97.00;;;;;;5004345;28;20460;-70
2022/09/04 00:58:12;;;;;;;14.50;13.60;;;17.30;96.90;;;;;;5004632;28;20508;-71
2022/09/04 01:00:39;;;;;;;15.37;14.37;;;17.30;96.70;;;;;;5006899;28;20511;-70
2022/09/04 01:03:34;;;;;;;15.50;14.40;;;17.30;96.60;;;;;;5005004;28;20483;-70
2022/09/04 01:06:18;;;;;;;14.93;13.97;;;17.20;96.90;;;;;;4995466;28;20463;-71
2022/09/04 01:09:06;;;;;;;15.60;14.50;;;17.20;97.20;;;;;;5006822;28;20767;-71
2022/09/04 01:12:06;;;;;;;13.90;13.10;;;17.20;97.10;;;;;;5005365;28;20481;-70
2022/09/04 01:14:40;;;;;;;13.97;13.17;;;17.20;97.10;;;;;;4998851;28;20487;-70
2022/09/04 01:17:18;;;;;;;14.87;13.77;;;17.10;97.10;;;;;;5001888;28;20469;-72
2022/09/04 01:19:53;;;;;;;14.80;13.70;;;17.20;97.10;;;;;;4998654;28;20482;-71
2022/09/04 01:22:34;;;;;;;15.30;14.40;;;17.20;97.00;;;;;;5006372;28;20473;-70
2022/09/04 01:25:12;;;;;;;14.03;13.23;;;17.20;96.90;;;;;;4997171;28;20483;-70
2022/09/04 01:27:50;;;;;;;14.67;13.63;;;17.20;96.80;;;;;;5001221;28;20480;-70
2022/09/04 01:30:19;;;;;;;14.97;14.00;;;17.10;96.90;;;;;;5004123;28;20452;-70
2022/09/04 01:32:59;;;;;;;14.80;13.80;;;17.10;96.90;;;;;;5004691;28;21009;-70
2022/09/04 01:35:34;;;;;;;14.07;13.13;;;17.10;97.00;;;;;;5004435;28;20457;-70
2022/09/04 01:38:10;;;;;;;14.23;13.33;;;17.00;97.10;;;;;;5004818;28;20463;-71
2022/09/04 01:40:43;;;;;;;15.03;13.93;;;17.00;97.00;;;;;;5005274;28;20476;-70
2022/09/04 01:43:12;;;;;;;14.60;13.70;;;17.00;97.10;;;;;;5004573;28;20484;-70
2022/09/04 01:46:04;;;;;;;14.47;13.67;;;17.00;97.10;;;;;;5006870;28;20477;-70
2022/09/04 01:48:41;;;;;;;14.87;13.97;;;16.90;97.30;;;;;;4996416;28;20531;-70
2022/09/04 01:51:16;;;;;;;14.23;13.23;;;16.90;97.00;;;;;;5004092;28;20463;-70
2022/09/04 01:53:51;;;;;;;13.93;13.03;;;16.90;97.20;;;;;;5002747;28;20965;-70
2022/09/04 01:56:25;;;;;;;14.23;13.37;;;16.90;97.00;;;;;;5004646;28;20465;-70
2022/09/04 01:59:01;;;;;;;15.23;14.23;;;16.80;97.20;;;;;;5003802;28;20458;-70
2022/09/04 02:01:37;;;;;;;13.90;13.00;;;16.80;97.30;;;;;;5003144;28;20489;-70
2022/09/04 02:04:10;;;;;;;13.60;12.80;;;16.80;97.30;;;;;;5005247;28;20469;-70
2022/09/04 02:06:49;;;;;;;12.90;12.03;;;16.80;97.20;;;;;;5005804;28;20552;-70
2022/09/04 02:09:29;;;;;;;13.87;13.10;;;16.80;97.00;;;;;;5005689;28;20545;-69
2022/09/04 02:12:08;;;;;;;12.93;11.73;;;16.80;97.00;;;;;;5005419;28;20483;-70
2022/09/04 02:14:42;;;;;;;13.33;12.50;;;16.80;96.80;;;;;;5001277;28;20464;-72
2022/09/04 02:17:13;;;;;;;13.33;12.53;;;16.80;96.80;;;;;;5002345;28;20545;-72
2022/09/04 02:19:59;;;;;;;13.20;12.10;;;16.70;96.70;;;;;;5001428;28;20842;-75
2022/09/04 02:22:33;;;;;;;14.50;13.27;;;16.80;96.50;;;;;;4998130;28;20478;-72
2022/09/04 02:25:06;;;;;;;13.33;12.33;;;16.70;96.60;;;;;;5000681;28;20466;-72
2022/09/04 02:27:45;;;;;;;14.10;13.30;;;16.60;96.90;;;;;;5004669;28;20480;-72
2022/09/04 02:30:18;;;;;;;13.87;13.00;;;16.60;96.80;;;;;;5003887;28;20452;-72
2022/09/04 02:32:53;;;;;;;12.00;11.30;;;16.60;96.70;;;;;;5003135;28;21095;-73
2022/09/04 02:35:27;;;;;;;16.40;15.40;;;16.60;96.60;;;;;;5000131;28;20448;-71
2022/09/04 02:38:07;;;;;;;12.73;11.83;;;16.50;96.60;;;;;;4998400;28;20981;-71
2022/09/04 02:40:42;;;;;;;17.00;16.00;;;16.50;96.90;;;;;;5005224;28;20480;-72
2022/09/04 02:43:27;;;;;;;15.53;14.50;;;16.50;97.00;;;;;;4998493;28;20493;-74
2022/09/04 02:46:04;;;;;;;15.90;14.97;;;16.50;97.00;;;;;;4992494;28;20475;-75
2022/09/04 02:48:40;;;;;;;13.57;12.77;;;16.50;97.00;;;;;;5004991;28;20456;-72
2022/09/04 02:51:20;;;;;;;13.50;12.73;;;16.40;97.00;;;;;;5006344;28;20451;-72
2022/09/04 02:53:57;;;;;;;14.07;13.17;;;16.40;96.80;;;;;;5004013;28;20467;-71
2022/09/04 02:56:35;;;;;;;14.50;13.70;;;16.30;97.00;;;;;;5005088;28;20464;-72
2022/09/04 02:59:17;;;;;;;12.70;12.00;;;16.30;97.10;;;;;;5011015;28;20460;-69
2022/09/04 03:01:52;;;;;;;16.33;15.43;;;16.20;97.40;;;;;;5006290;28;20918;-70
2022/09/04 03:04:26;;;;;;;12.90;12.20;;;16.20;97.60;;;;;;5008304;28;20466;-70
2022/09/04 03:06:59;;;;;;;13.03;12.30;;;16.20;97.80;;;;;;5001340;28;20491;-70
2022/09/04 03:09:31;;;;;;;13.73;13.03;;;16.20;97.80;;;;;;5004949;28;22150;-69
2022/09/04 03:12:04;;;;;;;13.83;12.80;;;16.10;97.80;;;;;;4998682;28;20481;-69
2022/09/04 03:14:38;;;;;;;13.57;12.77;;;16.20;97.60;;;;;;5008630;28;20453;-70
2022/09/04 03:17:15;;;;;;;12.43;11.73;;;16.10;97.60;;;;;;5009120;28;20463;-71
2022/09/04 03:19:48;;;;;;;12.87;11.97;;;16.10;97.70;;;;;;5007656;28;20456;-71
2022/09/04 03:22:22;;;;;;;12.70;11.90;;;16.20;97.30;;;;;;5008884;28;20475;-70
2022/09/04 03:25:11;;;;;;;12.37;11.67;;;16.20;97.20;;;;;;5008506;28;20464;-70
2022/09/04 03:27:39;;;;;;;11.10;10.50;;;16.10;97.40;;;;;;5009999;28;20549;-70
2022/09/04 03:30:09;;;;;;;13.57;12.77;;;16.10;97.30;;;;;;5007682;28;20478;-70
2022/09/04 03:32:46;;;;;;;19.90;18.90;;;16.10;97.30;;;;;;4998035;28;20480;-70
2022/09/04 03:35:22;;;;;;;13.37;12.50;;;16.10;97.10;;;;;;5002439;28;20486;-70
2022/09/04 03:38:00;;;;;;;13.67;12.87;;;16.10;97.20;;;;;;5010966;28;20463;-70
2022/09/04 03:40:36;;;;;;;15.07;13.47;;;16.10;97.10;;;;;;5004255;28;20468;-70
2022/09/04 03:43:21;;;;;;;16.40;15.50;;;16.10;97.10;;;;;;4999247;28;20489;-70
2022/09/04 03:46:02;;;;;;;12.67;11.87;;;16.10;97.20;;;;;;4995573;28;20469;-69
2022/09/04 03:48:44;;;;;;;13.03;12.20;;;16.10;97.10;;;;;;5008466;28;20457;-70
2022/09/04 03:51:19;;;;;;;11.50;10.90;;;16.00;97.30;;;;;;5001862;28;20453;-70
2022/09/04 03:53:58;;;;;;;12.73;12.00;;;16.00;97.20;;;;;;5000477;28;20452;-70
2022/09/04 03:56:41;;;;;;;11.77;11.10;;;16.00;97.30;;;;;;5009533;28;20468;-70
2022/09/04 03:59:12;;;;;;;12.20;11.50;;;16.00;97.30;;;;;;5009074;28;20463;-70
2022/09/04 04:01:52;;;;;;;12.67;11.87;;;15.90;97.40;;;;;;5006474;28;21051;-70
2022/09/04 04:04:51;;;;;;;11.77;11.17;;;16.00;97.30;;;;;;5007961;28;20464;-70
2022/09/04 04:07:31;;;;;;;13.40;12.10;;;15.90;97.10;;;;;;5007908;28;20465;-69
2022/09/04 04:10:18;;;;;;;12.80;12.10;;;15.90;97.30;;;;;;5005380;28;20457;-69
2022/09/04 04:13:11;;;;;;;14.03;13.17;;;15.90;97.30;;;;;;5004176;28;20481;-70
2022/09/04 04:15:55;;;;;;;12.73;12.00;;;15.80;97.30;;;;;;5010773;28;20985;-70
2022/09/04 04:18:43;;;;;;;11.50;10.90;;;15.90;97.10;;;;;;5006903;28;20466;-70
2022/09/04 04:21:22;;;;;;;12.77;12.07;;;15.90;96.90;;;;;;5001172;28;21276;-70
2022/09/04 04:24:11;;;;;;;15.83;15.03;;;15.80;97.00;;;;;;5004323;28;20469;-70
2022/09/04 04:26:48;;;;;;;13.63;12.93;;;15.80;97.10;;;;;;4998577;28;20483;-71
2022/09/04 04:29:47;;;;;;;13.57;12.87;;;15.80;97.10;;;;;;5006799;28;20462;-70
2022/09/04 04:32:29;;;;;;;23.07;21.93;;;15.80;97.10;;;;;;4993242;28;21052;-70
2022/09/04 04:35:10;;;;;;;15.67;14.87;;;15.80;97.10;;;;;;4999019;28;20575;-70
2022/09/04 04:37:50;;;;;;;13.43;12.73;;;15.80;96.90;;;;;;5003380;28;20547;-70
2022/09/04 04:40:31;;;;;;;13.17;12.23;;;15.70;97.10;;;;;;5001556;28;21060;-70
2022/09/04 04:43:05;;;;;;;18.90;17.90;;;15.80;97.00;;;;;;5006921;28;20513;-70
2022/09/04 04:45:49;;;;;;;15.70;14.80;;;15.80;97.00;;;;;;5002747;28;20466;-70
2022/09/04 04:48:46;;;;;;;13.60;12.70;;;15.70;97.00;;;;;;5000191;28;20490;-70
2022/09/04 04:51:25;;;;;;;13.60;12.90;;;15.80;96.90;;;;;;5007978;28;20452;-69
2022/09/04 04:54:02;;;;;;;14.27;13.40;;;15.80;96.60;;;;;;5005982;28;20461;-69
2022/09/04 04:56:39;;;;;;;13.63;12.93;;;15.80;96.50;;;;;;5003231;28;20457;-70
2022/09/04 04:59:19;;;;;;;13.27;12.57;;;15.80;96.70;;;;;;5007157;28;20469;-69
2022/09/04 05:01:54;;;;;;;13.50;12.70;;;15.70;96.80;;;;;;4998983;28;20571;-69
2022/09/04 05:04:31;;;;;;;13.03;12.33;;;15.80;96.80;;;;;;5004455;28;20457;-70
2022/09/04 05:07:03;;;;;;;13.97;13.17;;;15.80;96.60;;;;;;5005598;28;20470;-71
2022/09/04 05:09:40;;;;;;;15.20;14.40;;;15.80;96.50;;;;;;5005758;28;20504;-70
2022/09/04 05:12:16;;;;;;;14.10;13.30;;;15.90;96.50;;;;;;5008406;28;20481;-71
2022/09/04 05:14:52;;;;;;;12.60;11.90;;;15.90;96.40;;;;;;5001980;28;21095;-70
2022/09/04 05:17:29;;;;;;;14.10;13.20;;;15.90;96.30;;;;;;4998856;28;20462;-69
2022/09/04 05:20:26;;;;;;;13.47;12.70;;;16.00;96.10;;;;;;5004706;28;20449;-70
2022/09/04 05:23:01;;;;;;;13.37;12.57;;;16.00;96.00;;;;;;5006597;28;20487;-70
2022/09/04 05:25:40;;;;;;;13.03;12.33;;;16.00;95.80;;;;;;4996531;28;20495;-69
2022/09/04 05:28:21;;;;;;;14.27;13.33;;;16.00;95.70;;;;;;4995448;28;20464;-70
2022/09/04 05:30:55;;;;;;;13.50;12.60;;;16.20;95.50;;;;;;5002076;28;20453;-70
2022/09/04 05:33:31;;;;;;;13.67;12.97;;;16.20;94.90;;;;;;5004236;28;20472;-69
2022/09/04 05:36:05;;;;;;;15.70;14.70;;;16.20;95.00;;;;;;5005471;28;21028;-70
2022/09/04 05:38:38;;;;;;;14.30;13.13;;;16.30;94.90;;;;;;5005393;28;20878;-69
2022/09/04 05:41:11;;;;;;;14.30;13.40;;;16.30;95.00;;;;;;5004467;28;20474;-70
2022/09/04 05:44:00;;;;;;;13.80;13.00;;;16.40;94.90;;;;;;5000571;28;20488;-70
2022/09/04 05:46:41;;;;;;;15.70;14.27;;;16.40;94.70;;;;;;4996110;28;20662;-70
2022/09/04 05:49:18;;;;;;;14.43;13.73;;;16.50;94.60;;;;;;5001662;28;20468;-70
2022/09/04 05:52:07;;;;;;;13.00;12.30;;;16.50;94.50;;;;;;5000615;28;20480;-71
2022/09/04 05:55:06;;;;;;;13.67;12.87;;;16.60;94.00;;;;;;4990406;28;20485;-70
2022/09/04 05:57:46;;;;;;;14.77;13.93;;;16.70;93.80;;;;;;5003012;28;20464;-69
2022/09/04 06:00:16;;;;;;;13.13;12.30;;;16.70;94.10;;;;;;5003540;28;20457;-70
2022/09/04 06:02:56;;;;;;;14.93;13.97;;;16.90;93.50;;;;;;4993052;28;20981;-70
2022/09/04 06:05:31;;;;;;;18.57;17.63;;;16.90;93.30;;;;;;4991215;28;20672;-69
2022/09/04 06:08:05;;;;;;;13.67;12.87;;;16.90;93.40;;;;;;5004050;28;20467;-70
2022/09/04 06:10:45;;;;;;;14.23;13.23;;;17.00;93.40;;;;;;5000675;28;20465;-70
2022/09/04 06:13:39;;;;;;;14.60;13.67;;;17.10;92.90;;;;;;5000830;28;20816;-70
2022/09/04 06:16:23;;;;;;;14.50;13.60;;;17.20;92.40;;;;;;5004554;28;20895;-70
2022/09/04 06:19:01;;;;;;;15.07;14.27;;;17.40;92.10;;;;;;5005039;28;20464;-70
2022/09/04 06:21:58;;;;;;;14.90;13.90;;;17.40;91.90;;;;;;5004289;28;20491;-70
2022/09/04 06:24:44;;;;;;;14.60;13.90;;;17.50;91.80;;;;;;5001227;28;20460;-70
2022/09/04 06:27:34;;;;;;;15.30;14.50;;;17.50;92.00;;;;;;5005348;28;20624;-72
2022/09/04 06:30:07;;;;;;;15.07;14.27;;;17.50;92.00;;;;;;5001921;28;20725;-70
2022/09/04 06:33:08;;;;;;;14.63;13.73;;;17.70;91.40;;;;;;5004805;28;20474;-70
2022/09/04 06:35:58;;;;;;;15.33;14.63;;;17.80;91.30;;;;;;4998233;28;20918;-70
2022/09/04 06:38:42;;;;;;;15.60;14.70;;;17.80;91.60;;;;;;5002503;28;20464;-71
2022/09/04 06:41:30;;;;;;;16.03;15.23;;;17.80;91.60;;;;;;5006343;28;20491;-70
2022/09/04 06:44:04;;;;;;;20.73;19.63;;;18.00;91.20;;;;;;5006359;28;20472;-73
2022/09/04 06:46:39;;;;;;;16.37;15.50;;;18.10;90.80;;;;;;4995104;28;20466;-70
2022/09/04 06:49:13;;;;;;;18.67;17.47;;;18.20;90.60;;;;;;4997905;28;20479;-69
2022/09/04 06:51:55;;;;;;;14.83;14.13;;;18.30;90.40;;;;;;5002789;28;20920;-70
2022/09/04 06:54:36;;;;;;;16.50;15.67;;;18.40;90.30;;;;;;4996101;28;20453;-69
2022/09/04 06:57:19;;;;;;;18.03;16.80;;;18.60;90.00;;;;;;4996299;28;20472;-69
2022/09/04 06:59:59;;;;;;;18.03;17.03;;;18.70;89.70;;;;;;5001897;28;20457;-69
2022/09/04 07:02:43;;;;;;;16.50;15.70;;;18.80;89.60;;;;;;4996746;28;20493;-69
2022/09/04 07:05:20;;;;;;;19.90;18.93;;;18.90;89.30;;;;;;5002950;28;20464;-70
2022/09/04 07:07:59;;;;;;;15.13;14.13;;;19.00;89.40;;;;;;5001799;28;20556;-70
2022/09/04 07:10:31;;;;;;;18.07;17.20;;;19.10;89.30;;;;;;5008634;28;20457;-72
2022/09/04 07:13:34;;;;;;;15.10;14.30;;;19.20;89.00;;;;;;5003014;28;20490;-70
2022/09/04 07:16:14;;;;;;;18.27;17.37;;;19.30;88.70;;;;;;5004829;28;20814;-71
2022/09/04 07:19:07;;;;;;;14.30;13.40;;;19.30;88.80;;;;;;5003739;28;20457;-71
2022/09/04 07:21:42;;;;;;;18.63;17.70;;;19.40;88.80;;;;;;5002991;28;20477;-71
2022/09/04 07:24:34;;;;;;;15.40;14.60;;;19.50;88.70;;;;;;5000679;28;20467;-72
2022/09/04 07:27:11;;;;;;;21.60;20.50;;;19.60;88.60;;;;;;5004171;28;20481;-73
2022/09/04 07:29:43;;;;;;;14.70;14.00;;;19.70;88.20;;;;;;5001249;28;20465;-72
2022/09/04 07:32:17;;;;;;;20.00;19.00;;;19.70;87.90;;;;;;5002145;28;20562;-73
2022/09/04 07:34:52;;;;;;;14.67;13.97;;;19.70;87.70;;;;;;5001382;28;20548;-73
2022/09/04 07:37:26;;;;;;;19.70;18.80;;;19.80;87.50;;;;;;5010136;28;20456;-73
2022/09/04 07:40:03;;;;;;;14.70;14.00;;;20.00;87.20;;;;;;5007706;28;20472;-73
2022/09/04 07:42:37;;;;;;;15.27;14.57;;;20.30;86.50;;;;;;5002556;28;20987;-71
2022/09/04 07:45:07;;;;;;;18.53;17.50;;;20.40;85.60;;;;;;5002589;28;20449;-72
2022/09/04 07:47:41;;;;;;;20.87;19.93;;;20.60;84.60;;;;;;4998043;28;20552;-70
2022/09/04 07:50:17;;;;;;;20.40;19.43;;;20.70;83.90;;;;;;4997475;28;20480;-69
2022/09/04 07:53:09;;;;;;;27.90;26.60;;;20.90;83.30;;;;;;5007300;28;20890;-70
2022/09/04 07:55:40;;;;;;;30.63;29.13;;;21.00;82.70;;;;;;5005384;28;20464;-72
2022/09/04 07:58:43;;;;;;;20.00;19.10;;;21.20;82.10;;;;;;5007658;28;20457;-72
2022/09/04 08:01:32;;;;;;;26.93;25.63;;;21.40;81.40;;;;;;4998699;28;20498;-71
2022/09/04 08:04:32;;;;;;;30.30;28.90;;;21.60;80.70;;;;;;5009097;28;20461;-73
2022/09/04 08:07:05;;;;;;;23.20;22.10;;;21.80;80.30;;;;;;5001927;28;20464;-70
2022/09/04 08:10:06;;;;;;;22.60;21.40;;;22.00;79.70;;;;;;5004465;28;20454;-72
2022/09/04 08:12:56;;;;;;;20.00;19.00;;;22.00;78.80;;;;;;4953450;28;20492;-74
2022/09/04 08:15:35;;;;;;;30.30;28.77;;;22.20;77.90;;;;;;5010209;28;20554;-71
2022/09/04 08:18:38;;;;;;;22.03;20.93;;;22.10;78.40;;;;;;5003856;28;20955;-73
2022/09/04 08:21:15;;;;;;;22.83;21.83;;;22.20;78.50;;;;;;4996365;28;20546;-72
2022/09/04 08:24:17;;;;;;;30.87;29.27;;;22.30;78.00;;;;;;4993156;28;20459;-73
2022/09/04 08:26:55;;;;;;;29.43;28.10;;;22.30;77.30;;;;;;4999314;28;20452;-72
2022/09/04 08:29:36;;;;;;;23.27;22.27;;;22.40;77.10;;;;;;5007466;28;20466;-72
2022/09/04 08:32:16;;;;;;;25.13;23.93;;;22.60;76.70;;;;;;5001387;28;20476;-69
2022/09/04 08:35:04;;;;;;;32.13;30.57;;;22.70;76.60;;;;;;5006023;28;20459;-70
2022/09/04 08:37:43;;;;;;;26.27;25.07;;;23.00;76.00;;;;;;5008810;28;20511;-69
2022/09/04 08:40:41;;;;;;;30.13;28.63;;;23.10;74.90;;;;;;5004892;28;20543;-70
2022/09/04 08:43:33;;;;;;;34.90;33.23;;;23.20;75.00;;;;;;4987106;28;20535;-70
2022/09/04 08:46:33;;;;;;;26.57;25.17;;;23.50;73.80;;;;;;4993304;28;20469;-70
2022/09/04 08:49:34;;;;;;;31.27;29.40;;;23.60;73.70;;;;;;4999340;28;20552;-72
2022/09/04 08:52:37;;;;;;;25.40;24.20;;;23.70;73.10;;;;;;4995431;28;20483;-72
2022/09/04 08:55:33;;;;;;;38.67;36.63;;;23.80;72.60;;;;;;5000648;28;20461;-72
2022/09/04 08:58:28;;;;;;;28.27;26.93;;;24.00;71.00;;;;;;5009427;28;20932;-72
2022/09/04 09:01:29;;;;;;;34.73;32.87;;;24.10;70.70;;;;;;5000369;28;20547;-72
2022/09/04 09:04:35;;;;;;;30.70;29.20;;;23.90;71.30;;;;;;5006885;28;20500;-72
2022/09/04 09:07:34;;;;;;;34.60;32.90;;;23.80;71.20;;;;;;5002191;28;20453;-72
2022/09/04 09:10:48;;;;;;;34.33;32.53;;;23.90;71.40;;;;;;4996614;28;20454;-72
2022/09/04 09:13:49;;;;;;;28.97;27.40;;;24.10;71.00;;;;;;4984519;28;20557;-72
2022/09/04 09:16:22;;;;;;;35.07;33.37;;;24.10;71.20;;;;;;5000031;28;20453;-72
2022/09/04 09:19:11;;;;;;;42.37;39.97;;;24.30;70.50;;;;;;5007027;28;20516;-72
2022/09/04 09:21:45;;;;;;;35.77;33.90;;;24.40;69.20;;;;;;5002152;28;20484;-72
2022/09/04 09:24:46;;;;;;;31.53;30.03;;;24.20;69.60;;;;;;5006292;28;20511;-73
2022/09/04 09:27:43;;;;;;;33.43;31.90;;;24.10;70.40;;;;;;4999021;28;20467;-72
2022/09/04 09:30:16;;;;;;;29.03;27.63;;;24.20;70.60;;;;;;5007572;28;20465;-73
2022/09/04 09:33:20;;;;;;;48.17;45.87;;;24.30;70.20;;;;;;5002166;28;20514;-70
2022/09/04 09:36:20;;;;;;;33.33;31.73;;;24.50;69.90;;;;;;5009476;28;20842;-71
2022/09/04 09:39:09;;;;;;;36.93;35.07;;;24.70;69.00;;;;;;5007095;28;21114;-70
2022/09/04 09:42:13;;;;;;;42.10;40.00;;;24.70;68.50;;;;;;4997744;28;20488;-70
2022/09/04 09:45:29;;;;;;;37.43;35.50;;;24.50;67.70;;;;;;5008191;28;20493;-71
2022/09/04 09:48:27;;;;;;;34.13;32.23;;;24.40;67.80;;;;;;4966947;28;20463;-70
2022/09/04 09:51:36;;;;;;;44.97;42.67;;;24.50;67.00;;;;;;4987747;28;20465;-70
2022/09/04 09:54:45;;;;;;;30.20;28.80;;;24.30;66.50;;;;;;5005986;28;20553;-70
2022/09/04 09:57:55;;;;;;;32.23;30.53;;;24.20;66.60;;;;;;4989589;28;20461;-70
2022/09/04 10:00:26;;;;;;;29.73;28.33;;;24.00;67.30;;;;;;4972795;28;20469;-70
2022/09/04 10:03:47;;;;;;;36.80;35.10;;;24.30;66.20;;;;;;5007246;28;20476;-70
2022/09/04 10:06:51;;;;;;;34.60;32.97;;;24.60;65.20;;;;;;5001716;28;20970;-70
2022/09/04 10:09:58;;;;;;;44.77;42.50;;;24.90;64.80;;;;;;5006129;28;20457;-72
2022/09/04 10:12:53;;;;;;;32.63;31.13;;;25.00;65.10;;;;;;4999105;28;20505;-70
2022/09/04 10:16:01;;;;;;;33.70;32.03;;;25.40;64.20;;;;;;4998638;28;20950;-70
2022/09/04 10:19:10;;;;;;;30.67;29.17;;;25.60;63.00;;;;;;5003497;28;21251;-70
2022/09/04 10:22:18;;;;;;;30.03;28.63;;;25.50;64.20;;;;;;4995316;28;20545;-70
2022/09/04 10:25:29;;;;;;;31.83;30.33;;;25.50;63.70;;;;;;5001786;28;20452;-70
2022/09/04 10:28:28;;;;;;;37.50;35.70;;;25.70;62.70;;;;;;5004878;28;21284;-73
2022/09/04 10:31:32;;;;;;;38.83;36.93;;;25.70;62.70;;;;;;4998446;28;20461;-72
2022/09/04 10:34:12;;;;;;;30.97;29.47;;;25.60;63.10;;;;;;5004196;28;20472;-71
2022/09/04 10:36:49;;;;;;;34.87;33.13;;;25.70;63.30;;;;;;5010244;28;20464;-71
2022/09/04 10:42:37;;;;;;;33.23;31.33;;;26.00;61.90;;;;;;5003661;28;20760;-72
2022/09/04 10:45:26;;;;;;;29.50;28.10;;;25.70;60.20;;;;;;4997407;28;20464;-74
2022/09/04 10:48:26;;;;;;;30.07;28.53;;;25.60;60.50;;;;;;5002612;28;20453;-73
2022/09/04 10:51:33;;;;;;;29.00;27.60;;;25.90;59.70;;;;;;5004467;28;20467;-72
2022/09/04 10:54:35;;;;;;;34.47;32.63;;;25.90;58.80;;;;;;5002197;28;21048;-71
2022/09/04 10:57:17;;;;;;;30.00;28.60;;;26.10;59.00;;;;;;4994823;28;20442;-73
2022/09/04 11:00:06;;;;;;;36.00;34.13;;;26.20;59.10;;;;;;4999108;28;20463;-74
2022/09/04 11:02:58;;;;;;;32.97;31.17;;;26.20;59.20;;;;;;4999312;28;20568;-72
2022/09/04 11:05:40;;;;;;;37.63;35.87;;;26.10;59.60;;;;;;4999319;28;20454;-73
2022/09/04 11:08:54;;;;;;;36.83;35.03;;;26.00;59.50;;;;;;5002416;28;20457;-74
2022/09/04 11:11:40;;;;;;;34.03;32.33;;;26.10;59.30;;;;;;4999783;28;20488;-72
2022/09/04 11:14:50;;;;;;;35.50;33.60;;;26.30;59.60;;;;;;4998522;28;20524;-72
2022/09/04 11:17:43;;;;;;;33.27;31.77;;;26.50;58.10;;;;;;5000100;28;20461;-73
2022/09/04 11:20:41;;;;;;;32.77;30.70;;;26.70;58.50;;;;;;4999233;28;20512;-73
2022/09/04 11:23:47;;;;;;;43.97;41.67;;;27.00;57.40;;;;;;5000839;28;20477;-73
2022/09/04 11:27:00;;;;;;;31.93;30.43;;;27.10;57.30;;;;;;5012372;28;20457;-75
2022/09/04 11:29:54;;;;;;;41.53;39.40;;;27.10;55.40;;;;;;5006758;28;20482;-73
2022/09/04 11:32:41;;;;;;;30.17;28.63;;;27.00;54.10;;;;;;4995533;28;20556;-72
2022/09/04 11:35:44;;;;;;;35.00;33.40;;;26.80;54.70;;;;;;5001348;28;20561;-72
2022/09/04 11:38:19;;;;;;;32.50;30.90;;;26.70;55.50;;;;;;5010148;28;20460;-73
2022/09/04 11:41:31;;;;;;;31.37;29.77;;;26.80;55.10;;;;;;5012078;28;20953;-72
2022/09/04 11:44:28;;;;;;;37.30;35.60;;;26.70;55.60;;;;;;4992257;28;20907;-72
2022/09/04 11:47:30;;;;;;;34.50;32.80;;;26.70;55.50;;;;;;5001680;28;20453;-73
2022/09/04 11:50:23;;;;;;;32.67;30.93;;;26.60;55.50;;;;;;5007586;28;20552;-73
2022/09/04 11:53:13;;;;;;;32.83;31.33;;;26.50;55.70;;;;;;5011138;28;20482;-73
2022/09/04 11:56:12;;;;;;;32.40;30.80;;;26.70;54.80;;;;;;5005579;28;20561;-72
2022/09/04 11:58:58;;;;;;;32.07;30.50;;;26.70;54.70;;;;;;5006010;28;20803;-73
2022/09/04 12:01:42;;;;;;;33.03;30.97;;;26.70;54.80;;;;;;5003156;28;20473;-72
2022/09/04 12:04:40;;;;;;;36.70;34.63;;;26.50;55.00;;;;;;5005894;28;20485;-73
2022/09/04 12:07:19;;;;;;;37.40;35.70;;;26.60;54.80;;;;;;4997182;28;20471;-73
2022/09/04 12:10:05;;;;;;;34.37;32.77;;;26.80;54.10;;;;;;5009246;28;20492;-73
2022/09/04 12:12:52;;;;;;;32.70;31.20;;;26.90;54.00;;;;;;5008878;28;21012;-74
2022/09/04 12:15:54;;;;;;;30.30;28.90;;;26.90;54.00;;;;;;5003203;28;20830;-73
2022/09/04 12:19:08;;;;;;;31.87;30.37;;;27.10;53.70;;;;;;5006880;28;20460;-72
2022/09/04 12:22:14;;;;;;;34.80;32.87;;;27.40;52.90;;;;;;5008816;28;20480;-74
2022/09/04 12:25:00;;;;;;;31.63;30.13;;;27.60;51.90;;;;;;4982088;28;20461;-75
2022/09/04 12:28:07;;;;;;;33.73;32.13;;;27.70;51.70;;;;;;5004213;28;20461;-73
2022/09/04 12:30:48;;;;;;;30.80;29.20;;;27.70;51.90;;;;;;4987106;28;20875;-71
2022/09/04 12:33:45;;;;;;;30.30;28.90;;;27.70;51.70;;;;;;4999358;28;21012;-73
2022/09/04 12:36:36;;;;;;;34.93;33.23;;;27.70;51.70;;;;;;5006419;28;20563;-75
2022/09/04 12:39:36;;;;;;;30.70;29.10;;;27.70;52.00;;;;;;5007075;28;20454;-73
2022/09/04 12:42:11;;;;;;;31.30;29.73;;;27.70;51.70;;;;;;5001560;28;20516;-78
2022/09/04 12:44:49;;;;;;;37.50;35.77;;;27.70;52.50;;;;;;5004375;28;20480;-75
2022/09/04 12:47:31;;;;;;;44.97;42.87;;;27.80;52.00;;;;;;4995434;28;20477;-70
2022/09/04 12:50:15;;;;;;;29.50;28.10;;;27.90;51.80;;;;;;5004320;28;20548;-70
2022/09/04 12:53:06;;;;;;;34.67;32.97;;;28.00;51.80;;;;;;5003270;28;20482;-70
2022/09/04 12:55:44;;;;;;;30.53;29.03;;;28.10;51.70;;;;;;4985080;28;20471;-72
2022/09/04 12:58:23;;;;;;;28.87;27.47;;;28.00;51.70;;;;;;5000377;28;20461;-71
2022/09/04 13:01:00;;;;;;;31.63;30.03;;;28.10;52.20;;;;;;5000089;28;20519;-71
2022/09/04 13:03:36;;;;;;;38.10;36.20;;;28.30;52.00;;;;;;4997161;28;20486;-71
2022/09/04 13:06:15;;;;;;;34.80;33.03;;;28.40;51.00;;;;;;5001261;28;20471;-72
2022/09/04 13:08:52;;;;;;;36.43;34.73;;;28.40;51.50;;;;;;5001933;28;20461;-72
2022/09/04 13:11:33;;;;;;;31.30;29.80;;;28.40;50.80;;;;;;5002564;28;20487;-70
2022/09/04 13:14:28;;;;;;;39.43;37.53;;;28.50;51.00;;;;;;5001073;28;20967;-71
2022/09/04 17:51:34;;;;;;;29.87;28.37;;;24.90;60.60;;;;;;5125553;27;20580;-73
2022/09/04 17:54:10;;;;;;;31.40;29.80;;;24.90;60.80;;;;;;5123773;27;20459;-74
2022/09/04 17:56:41;;;;;;;31.37;29.77;;;24.90;60.80;;;;;;5120990;27;20546;-75
2022/09/04 17:59:12;;;;;;;38.33;36.27;;;24.80;61.10;;;;;;5113451;27;20508;-74
2022/09/04 18:01:45;;;;;;;53.93;51.33;;;24.70;61.40;;;;;;5120560;27;20555;-75
2022/09/04 18:04:25;;;;;;;33.10;31.40;;;24.60;61.60;;;;;;5116055;27;20444;-74
2022/09/04 18:06:59;;;;;;;35.73;33.90;;;24.40;62.00;;;;;;5114332;27;20948;-74
2022/09/04 18:09:35;;;;;;;29.80;28.20;;;24.30;62.30;;;;;;5123712;27;20455;-74
2022/09/04 18:12:17;;;;;;;32.10;30.53;;;24.20;62.50;;;;;;5118752;27;20574;-74
2022/09/04 18:14:59;;;;;;;31.07;29.47;;;24.10;62.90;;;;;;5117365;27;20606;-73
2022/09/04 18:17:35;;;;;;;40.33;38.13;;;23.90;63.50;;;;;;5114405;27;20462;-70
2022/09/04 18:20:11;;;;;;;30.47;28.87;;;23.80;64.00;;;;;;5122854;27;20452;-71
2022/09/04 18:23:29;;;;;;;35.43;33.53;;;23.50;65.10;;;;;;5119309;27;20475;-70
2022/09/04 18:26:03;;;;;;;39.50;37.30;;;23.40;65.40;;;;;;5075635;28;20895;-70
2022/09/04 18:28:40;;;;;;;32.07;30.17;;;23.20;65.60;;;;;;5110164;27;20456;-71
2022/09/04 18:31:25;;;;;;;30.93;29.27;;;23.10;66.00;;;;;;5119341;27;20802;-70
2022/09/04 18:34:01;;;;;;;46.87;44.53;;;22.90;66.50;;;;;;5116050;27;21755;-71